Time;durP1;ratioP1;P1;durP2;ratioP2;P2;SDS_P1;SDS_P2;PMS_P1;PMS_P2;Temp;Humidity;BMP_temperature;BMP_pressure;BME280_temperature;BME280_humidity;BME280_pressure;Samples;Min_cycle;Max_cycle;Signal;HPM_P1;HPM_P2
2021/12/14 00:01:43;;;;;;;2.53;2.05;;;15.80;59.50;;;;;;5073874;28;20511;-73
2021/12/14 00:04:12;;;;;;;2.47;2.00;;;15.90;65.90;;;;;;5071043;28;20500;-73
2021/12/14 00:06:40;;;;;;;3.45;2.10;;;15.80;64.50;;;;;;5074073;28;20117;-73
2021/12/14 00:09:09;;;;;;;2.88;2.30;;;15.70;59.50;;;;;;5072618;28;20136;-73
2021/12/14 00:12:06;;;;;;;2.78;2.03;;;15.80;65.80;;;;;;5072668;28;20053;-73
2021/12/14 00:17:22;;;;;;;2.43;1.77;;;15.70;64.10;;;;;;5072596;28;20522;-73
2021/12/14 00:19:51;;;;;;;3.65;2.03;;;15.80;66.00;;;;;;5072598;28;20393;-73
2021/12/14 00:22:25;;;;;;;2.78;2.05;;;;;;;;;;5070939;28;20155;-73
2021/12/14 00:24:51;;;;;;;3.05;2.20;;;15.60;65.90;;;;;;5072628;28;20135;-73
2021/12/14 00:27:18;;;;;;;3.92;1.90;;;15.80;65.60;;;;;;5072251;28;20127;-73
2021/12/14 00:29:46;;;;;;;2.78;2.10;;;15.80;59.90;;;;;;5072256;28;20060;-73
2021/12/14 00:32:18;;;;;;;4.00;2.10;;;15.20;60.00;;;;;;5072574;28;20079;-73
2021/12/14 00:34:45;;;;;;;3.03;1.80;;;15.70;65.60;;;;;;5072367;28;20061;-73
2021/12/14 00:37:14;;;;;;;2.45;1.88;;;15.70;59.50;;;;;;5071735;28;20080;-73
2021/12/14 00:39:41;;;;;;;3.15;1.95;;;;;;;;;;5066746;28;20135;-73
2021/12/14 00:42:08;;;;;;;2.97;2.00;;;15.80;65.60;;;;;;5051739;28;20124;-73
2021/12/14 00:44:35;;;;;;;2.38;1.77;;;15.80;65.70;;;;;;5052033;28;20136;-73
2021/12/14 00:47:02;;;;;;;2.97;2.00;;;15.70;64.10;;;;;;5051855;28;20139;-73
2021/12/14 00:49:29;;;;;;;3.05;1.85;;;15.70;65.90;;;;;;5056845;28;20144;-73
2021/12/14 00:51:56;;;;;;;3.10;1.98;;;15.20;65.30;;;;;;5053080;28;20128;-73
2021/12/14 00:54:25;;;;;;;2.00;1.80;;;15.30;65.40;;;;;;5051806;28;20135;-73
2021/12/14 00:56:52;;;;;;;2.33;1.92;;;15.70;59.50;;;;;;5051458;28;20049;-73
2021/12/14 00:59:19;;;;;;;2.53;1.88;;;15.80;65.90;;;;;;5052055;28;20574;-73
2021/12/14 01:01:48;;;;;;;2.47;1.95;;;17.20;60.30;;;;;;5051578;28;20053;-73
2021/12/14 01:04:17;;;;;;;2.63;1.90;;;15.80;65.80;;;;;;5062049;28;20136;-73
2021/12/14 01:06:46;;;;;;;2.40;1.83;;;15.70;65.60;;;;;;5071277;28;20139;-73
2021/12/14 01:09:13;;;;;;;3.08;2.13;;;15.60;65.70;;;;;;5071312;28;20056;-73
2021/12/14 01:11:44;;;;;;;2.30;1.85;;;15.70;59.50;;;;;;5071626;28;20087;-73
2021/12/14 01:14:13;;;;;;;2.58;2.13;;;15.80;65.60;;;;;;5071646;28;20052;-73
2021/12/14 01:16:51;;;;;;;3.80;1.80;;;15.70;59.50;;;;;;5071467;28;20608;-74
2021/12/14 01:19:20;;;;;;;3.08;1.90;;;15.70;65.60;;;;;;5071496;28;20521;-73
2021/12/14 01:22:12;;;;;;;2.63;1.90;;;15.60;61.90;;;;;;5068801;28;20053;-73
2021/12/14 01:25:01;;;;;;;2.63;1.70;;;15.60;65.60;;;;;;5071454;28;20447;-73
2021/12/14 01:27:33;;;;;;;3.08;2.00;;;15.70;65.70;;;;;;5070925;28;20102;-73
2021/12/14 01:30:04;;;;;;;2.40;1.83;;;15.70;65.90;;;;;;5071368;28;20052;-73
2021/12/14 01:32:35;;;;;;;2.22;1.67;;;;;;;;;;5071257;28;20087;-73
2021/12/14 01:35:02;;;;;;;2.25;1.80;;;15.60;65.50;;;;;;5071174;28;20066;-73
2021/12/14 01:37:39;;;;;;;2.85;1.90;;;15.80;65.80;;;;;;5069305;28;20061;-72
2021/12/14 01:40:17;;;;;;;2.85;1.80;;;;;;;;;;5070916;28;20451;-73
2021/12/14 01:42:46;;;;;;;2.72;2.17;;;15.40;61.70;;;;;;5071283;28;20481;-73
2021/12/14 01:45:15;;;;;;;2.70;1.80;;;15.20;65.40;;;;;;5072091;28;20048;-73
2021/12/14 01:47:43;;;;;;;2.55;1.80;;;15.20;65.20;;;;;;5070629;28;20426;-73
2021/12/14 01:50:12;;;;;;;2.33;1.70;;;15.70;65.50;;;;;;5071008;28;20135;-73
2021/12/14 01:52:38;;;;;;;2.30;1.75;;;15.20;65.60;;;;;;5070997;28;20063;-73
2021/12/14 01:55:07;;;;;;;3.33;1.92;;;15.60;59.40;;;;;;5069010;28;20052;-73
2021/12/14 01:57:34;;;;;;;2.65;1.90;;;15.50;65.40;;;;;;5070723;28;20080;-73
2021/12/14 02:00:05;;;;;;;2.83;1.80;;;15.80;63.90;;;;;;5070581;28;20124;-73
2021/12/14 02:02:40;;;;;;;2.70;1.90;;;15.30;60.00;;;;;;5070600;28;20060;-73
2021/12/14 02:05:10;;;;;;;2.35;1.80;;;15.60;65.70;;;;;;5070822;28;20057;-73
2021/12/14 02:07:36;;;;;;;2.25;1.80;;;15.60;65.40;;;;;;5070551;28;20144;-73
2021/12/14 02:10:07;;;;;;;2.60;1.80;;;15.70;65.50;;;;;;5070921;28;20524;-73
2021/12/14 02:12:36;;;;;;;2.58;1.83;;;15.40;65.00;;;;;;5054829;28;20073;-73
2021/12/14 02:15:07;;;;;;;2.22;1.80;;;15.70;65.30;;;;;;5050696;28;20478;-73
2021/12/14 02:17:34;;;;;;;2.20;1.77;;;;;;;;;;5050036;28;20077;-73
2021/12/14 02:20:01;;;;;;;2.92;1.73;;;;;;;;;;5050758;28;20131;-73
2021/12/14 02:22:30;;;;;;;2.35;2.03;;;15.80;59.20;;;;;;5050299;28;20429;-73
2021/12/14 02:24:56;;;;;;;2.15;1.70;;;15.50;63.90;;;;;;5069158;28;20136;-73
2021/12/14 02:27:23;;;;;;;2.78;2.00;;;15.70;65.40;;;;;;5070410;28;20139;-73
2021/12/14 02:29:50;;;;;;;2.03;1.55;;;;;;;;;;5070555;28;20144;-73
2021/12/14 02:32:20;;;;;;;3.33;2.15;;;15.80;65.40;;;;;;5072710;28;20425;-73
2021/12/14 02:34:49;;;;;;;2.10;1.75;;;15.90;63.40;;;;;;5074731;28;20144;-73
2021/12/14 02:37:17;;;;;;;2.35;1.80;;;15.80;65.20;;;;;;5071625;28;20088;-73
2021/12/14 02:40:03;;;;;;;2.22;1.77;;;16.00;65.20;;;;;;5054519;28;20052;-73
2021/12/14 02:42:30;;;;;;;2.25;1.80;;;15.60;65.20;;;;;;5054322;28;20126;-73
2021/12/14 02:44:58;;;;;;;2.17;1.65;;;16.00;65.20;;;;;;5054424;28;20055;-73
2021/12/14 02:47:25;;;;;;;3.13;1.70;;;15.50;59.40;;;;;;5053838;28;20136;-73
2021/12/14 02:49:52;;;;;;;2.45;1.88;;;16.10;65.40;;;;;;5053929;28;20055;-73
2021/12/14 02:52:27;;;;;;;2.08;1.80;;;16.00;59.10;;;;;;5054523;28;20127;-73
2021/12/14 02:54:57;;;;;;;2.03;1.60;;;15.90;65.10;;;;;;5065461;28;20386;-73
2021/12/14 02:57:29;;;;;;;1.88;1.67;;;15.30;65.00;;;;;;5073877;28;20135;-73
2021/12/14 02:59:57;;;;;;;2.30;1.85;;;16.10;63.00;;;;;;5074275;28;20059;-73
2021/12/14 03:02:24;;;;;;;2.47;1.80;;;16.10;63.30;;;;;;5074065;28;20127;-73
2021/12/14 03:04:53;;;;;;;2.65;1.80;;;16.00;65.30;;;;;;5073783;28;20048;-73
2021/12/14 03:07:22;;;;;;;2.28;1.83;;;15.90;65.00;;;;;;5073736;28;20576;-73
2021/12/14 03:09:57;;;;;;;2.22;1.70;;;16.00;58.90;;;;;;5075012;28;20413;-73
2021/12/14 03:12:29;;;;;;;3.17;2.63;;;15.90;65.00;;;;;;5059229;28;20053;-73
2021/12/14 03:14:58;;;;;;;2.85;2.10;;;16.10;65.30;;;;;;5053800;28;20059;-73
2021/12/14 03:17:24;;;;;;;2.47;1.95;;;16.00;65.10;;;;;;5053572;28;20462;-73
2021/12/14 03:19:55;;;;;;;2.47;1.90;;;16.10;64.90;;;;;;5055246;28;20647;-73
2021/12/14 03:22:24;;;;;;;2.63;2.03;;;16.30;61.80;;;;;;5054761;28;20132;-73
2021/12/14 03:24:51;;;;;;;1.95;1.70;;;16.10;65.20;;;;;;5053614;28;20136;-72
2021/12/14 03:27:18;;;;;;;2.40;2.00;;;16.10;61.90;;;;;;5053412;28;20448;-73
2021/12/14 03:29:46;;;;;;;2.80;1.80;;;16.20;65.20;;;;;;5070484;28;20088;-73
2021/12/14 03:32:13;;;;;;;1.92;1.70;;;;;;;;;;5075135;28;20469;-73
2021/12/14 03:34:40;;;;;;;1.95;1.67;;;16.10;62.20;;;;;;5074810;28;20131;-73
2021/12/14 03:37:08;;;;;;;2.85;1.90;;;16.20;65.10;;;;;;5073626;28;20127;-73
2021/12/14 03:39:36;;;;;;;2.30;1.77;;;16.10;65.10;;;;;;5073377;28;20080;-73
2021/12/14 03:42:05;;;;;;;2.70;1.85;;;15.70;64.80;;;;;;5073329;28;20127;-73
2021/12/14 03:44:33;;;;;;;2.33;1.88;;;16.10;58.70;;;;;;5072475;28;20095;-75
2021/12/14 03:47:06;;;;;;;2.38;1.83;;;16.10;58.70;;;;;;5053640;28;20051;-73
2021/12/14 03:49:34;;;;;;;2.15;1.77;;;16.10;62.20;;;;;;5052890;28;20087;-73
2021/12/14 03:52:01;;;;;;;3.33;2.10;;;;;;;;;;5054144;28;20053;-73
2021/12/14 03:54:28;;;;;;;2.30;1.90;;;;;;;;;;5053046;28;20187;-73
2021/12/14 03:56:56;;;;;;;2.58;2.10;;;16.20;64.90;;;;;;5052843;28;20549;-73
2021/12/14 03:59:25;;;;;;;1.98;1.70;;;16.80;60.40;;;;;;5052959;28;20053;-73
2021/12/14 04:01:52;;;;;;;2.92;2.20;;;16.30;65.10;;;;;;5055270;28;20077;-73
2021/12/14 04:04:22;;;;;;;2.55;2.03;;;16.20;64.70;;;;;;5054143;28;20080;-73
2021/12/14 04:06:50;;;;;;;2.50;2.00;;;15.50;64.30;;;;;;5052551;28;20111;-74
2021/12/14 04:09:17;;;;;;;3.22;2.05;;;15.80;64.70;;;;;;5053834;28;20510;-73
2021/12/14 04:11:44;;;;;;;2.53;2.10;;;16.20;65.00;;;;;;5054156;28;20124;-73
2021/12/14 04:14:11;;;;;;;2.28;1.77;;;;;;;;;;5052509;28;20498;-75
2021/12/14 04:16:39;;;;;;;2.92;2.10;;;16.10;64.70;;;;;;5052440;28;20076;-73
2021/12/14 04:19:06;;;;;;;2.35;2.00;;;15.80;64.70;;;;;;5052886;28;20140;-73
2021/12/14 04:21:36;;;;;;;2.20;1.88;;;16.10;58.70;;;;;;5053634;28;20087;-75
2021/12/14 04:24:02;;;;;;;2.92;1.92;;;15.90;64.60;;;;;;5053898;28;20144;-75
2021/12/14 04:26:29;;;;;;;2.50;2.00;;;16.50;64.80;;;;;;5053628;28;20136;-74
2021/12/14 04:28:57;;;;;;;2.58;1.98;;;16.00;64.80;;;;;;5052502;28;20134;-73
2021/12/14 04:31:24;;;;;;;2.50;1.90;;;16.00;64.60;;;;;;5053716;28;20080;-73
2021/12/14 04:33:51;;;;;;;2.30;2.10;;;16.00;65.00;;;;;;5053602;28;20128;-73
2021/12/14 04:36:20;;;;;;;2.67;2.20;;;16.10;59.30;;;;;;5052799;28;20144;-73
2021/12/14 04:38:56;;;;;;;2.97;2.15;;;16.10;64.70;;;;;;5053534;28;20099;-73
2021/12/14 04:52:22;;;;;;;2.40;1.90;;;15.60;64.60;;;;;;5053213;28;20476;-73
2021/12/14 04:54:52;;;;;;;2.63;1.90;;;16.20;65.00;;;;;;5051919;28;20056;-73
2021/12/14 04:57:21;;;;;;;2.83;2.03;;;16.10;58.70;;;;;;5052532;28;20436;-73
2021/12/14 04:59:48;;;;;;;2.50;1.92;;;15.60;59.60;;;;;;5052001;28;20107;-73
2021/12/14 05:02:16;;;;;;;3.40;2.40;;;16.00;64.80;;;;;;5052885;28;20099;-73
2021/12/14 05:04:43;;;;;;;2.38;1.98;;;15.70;64.30;;;;;;5052973;28;20127;-73
2021/12/14 05:07:28;;;;;;;2.38;1.98;;;;;;;;;;5051620;28;20092;-74
2021/12/14 05:09:55;;;;;;;3.07;2.20;;;15.70;62.30;;;;;;5060604;28;20064;-73
2021/12/14 05:12:23;;;;;;;2.97;2.10;;;16.20;64.60;;;;;;5069937;28;20102;-74
2021/12/14 05:14:50;;;;;;;3.22;2.42;;;16.00;64.80;;;;;;5055921;28;20173;-74
2021/12/14 05:17:19;;;;;;;3.20;2.20;;;16.20;64.80;;;;;;5051482;28;20096;-74
2021/12/14 05:19:46;;;;;;;2.20;1.90;;;16.20;59.20;;;;;;5057306;28;20086;-75
2021/12/14 05:22:17;;;;;;;3.20;2.30;;;15.40;62.00;;;;;;5061425;28;20157;-74
2021/12/14 05:24:48;;;;;;;2.70;2.22;;;16.50;64.80;;;;;;5063320;28;20051;-75
2021/12/14 05:27:19;;;;;;;2.97;2.20;;;16.20;64.90;;;;;;5057371;28;20061;-73
2021/12/14 05:29:45;;;;;;;2.55;2.28;;;15.30;64.10;;;;;;5062190;28;20099;-75
2021/12/14 05:32:15;;;;;;;3.10;2.33;;;15.60;64.10;;;;;;5062084;28;20045;-74
2021/12/14 05:34:42;;;;;;;3.00;2.45;;;15.80;64.10;;;;;;5060006;28;20048;-74
2021/12/14 05:37:11;;;;;;;2.92;2.20;;;16.30;64.70;;;;;;5059865;28;20680;-74
2021/12/14 05:39:49;;;;;;;2.78;2.25;;;16.50;63.00;;;;;;5061659;28;20416;-74
2021/12/14 05:45:08;;;;;;;8.32;2.45;;;16.40;64.60;;;;;;5060071;28;20493;-74
2021/12/14 05:47:40;;;;;;;2.70;2.20;;;16.30;64.30;;;;;;5060430;28;20056;-74
2021/12/14 05:50:07;;;;;;;3.10;2.25;;;16.60;64.70;;;;;;5059677;28;20498;-74
2021/12/14 05:52:34;;;;;;;3.42;2.35;;;15.70;63.80;;;;;;5061025;28;20128;-75
2021/12/14 05:55:01;;;;;;;2.97;2.10;;;16.40;64.50;;;;;;5061127;28;20459;-75
2021/12/14 05:57:29;;;;;;;2.63;2.25;;;16.40;58.30;;;;;;5060316;28;20462;-73
2021/12/14 05:59:56;;;;;;;2.92;2.10;;;16.90;60.40;;;;;;5060418;28;20127;-75
2021/12/14 06:02:23;;;;;;;3.22;2.60;;;15.80;64.10;;;;;;5059546;28;20049;-74
2021/12/14 06:04:51;;;;;;;2.85;2.33;;;16.40;61.90;;;;;;5059764;28;20080;-74
2021/12/14 06:07:18;;;;;;;2.33;2.05;;;16.60;61.10;;;;;;5059747;28;20131;-74
2021/12/14 06:09:46;;;;;;;2.70;2.20;;;16.70;64.20;;;;;;5061053;28;20056;-75
2021/12/14 06:12:14;;;;;;;2.83;2.10;;;16.50;64.10;;;;;;5060178;28;20111;-75
2021/12/14 06:14:50;;;;;;;2.85;2.30;;;16.60;64.20;;;;;;5059743;28;20072;-74
2021/12/14 06:17:22;;;;;;;3.03;2.25;;;16.50;58.20;;;;;;5061994;28;20450;-73
2021/12/14 06:19:50;;;;;;;3.03;2.13;;;16.40;64.30;;;;;;5061216;28;20044;-74
2021/12/14 06:22:20;;;;;;;2.90;2.38;;;16.60;64.20;;;;;;5060453;28;20123;-74
2021/12/14 06:24:48;;;;;;;3.50;2.45;;;16.60;60.90;;;;;;5058953;28;20521;-74
2021/12/14 06:27:15;;;;;;;3.10;2.30;;;16.70;62.10;;;;;;5060343;28;20131;-74
2021/12/14 06:29:44;;;;;;;3.17;2.50;;;16.60;64.10;;;;;;5061127;28;20144;-73
2021/12/14 06:32:13;;;;;;;3.40;2.30;;;16.60;64.30;;;;;;5061469;28;20068;-74
2021/12/14 06:34:42;;;;;;;3.15;2.25;;;17.30;64.60;;;;;;5059613;28;20190;-74
2021/12/14 06:37:42;;;;;;;3.47;2.50;;;16.40;58.30;;;;;;5057524;28;20049;-74
2021/12/14 06:40:17;;;;;;;3.00;2.38;;;17.50;63.50;;;;;;5059034;28;20059;-74
2021/12/14 06:42:45;;;;;;;2.83;2.47;;;16.90;64.30;;;;;;5059121;28;20123;-75
2021/12/14 06:45:16;;;;;;;2.72;2.38;;;16.70;63.90;;;;;;5061266;28;20084;-75
2021/12/14 06:47:43;;;;;;;2.90;2.10;;;16.70;59.00;;;;;;5060877;28;20053;-74
2021/12/14 06:50:14;;;;;;;3.17;2.42;;;16.80;64.30;;;;;;5061315;28;20128;-75
2021/12/14 06:52:42;;;;;;;2.97;2.25;;;16.80;64.00;;;;;;5055825;28;20643;-76
2021/12/14 06:55:19;;;;;;;3.30;2.38;;;15.90;60.30;;;;;;5050840;28;20056;-75
2021/12/14 06:57:46;;;;;;;2.83;2.30;;;17.10;64.10;;;;;;5056022;28;20169;-76
2021/12/14 07:00:15;;;;;;;3.40;2.50;;;15.70;63.40;;;;;;5060230;28;20132;-76
2021/12/14 07:02:46;;;;;;;2.83;2.50;;;16.60;62.90;;;;;;5051104;28;20053;-76
2021/12/14 07:05:18;;;;;;;2.85;2.30;;;16.70;64.10;;;;;;5050613;28;20132;-75
2021/12/14 07:07:44;;;;;;;3.17;2.58;;;15.90;63.50;;;;;;5050196;28;20087;-75
2021/12/14 07:10:12;;;;;;;3.45;2.60;;;16.80;64.00;;;;;;5051306;28;20139;-75
2021/12/14 07:12:40;;;;;;;2.70;2.25;;;16.90;64.00;;;;;;5050243;28;20056;-74
2021/12/14 07:15:12;;;;;;;2.78;2.40;;;16.70;64.20;;;;;;5050025;28;20478;-74
2021/12/14 07:17:44;;;;;;;3.78;2.70;;;17.00;64.40;;;;;;5049864;28;20556;-74
2021/12/14 07:20:23;;;;;;;3.78;2.90;;;16.70;64.30;;;;;;5053787;28;20063;-74
2021/12/14 07:22:51;;;;;;;6.70;3.10;;;16.70;64.20;;;;;;5053621;28;20417;-74
2021/12/14 07:25:21;;;;;;;5.40;2.80;;;17.60;64.50;;;;;;5066200;28;20052;-74
2021/12/14 07:27:47;;;;;;;4.13;2.88;;;16.60;63.90;;;;;;5053833;28;20124;-74
2021/12/14 07:30:20;;;;;;;5.25;2.83;;;16.70;64.30;;;;;;5053941;28;20136;-74
2021/12/14 07:32:52;;;;;;;3.88;2.83;;;16.20;63.90;;;;;;5053875;28;20128;-74
2021/12/14 07:35:32;;;;;;;3.78;2.80;;;16.80;64.20;;;;;;5053742;28;20554;-74
2021/12/14 07:38:01;;;;;;;4.55;2.78;;;16.90;64.10;;;;;;5053719;28;20056;-74
2021/12/14 07:40:35;;;;;;;6.60;3.03;;;15.80;63.40;;;;;;5053975;28;20084;-74
2021/12/14 07:43:10;;;;;;;4.10;2.50;;;16.80;64.00;;;;;;5061288;28;20128;-75
2021/12/14 07:45:37;;;;;;;4.53;2.80;;;16.70;64.00;;;;;;5058711;28;20140;-75
2021/12/14 07:48:05;;;;;;;2.58;2.38;;;15.90;63.50;;;;;;5073380;28;20135;-75
2021/12/14 07:50:44;;;;;;;3.22;2.53;;;17.20;64.40;;;;;;5073416;28;20136;-74
2021/12/14 07:53:11;;;;;;;3.58;2.80;;;15.80;63.50;;;;;;5073416;28;20132;-74
2021/12/14 07:55:40;;;;;;;3.80;3.10;;;17.30;64.20;;;;;;5073315;28;20491;-74
2021/12/14 07:58:07;;;;;;;3.83;2.70;;;;;;;;;;5073328;28;20483;-75
2021/12/14 08:00:39;;;;;;;4.32;2.97;;;17.10;64.20;;;;;;5073240;28;20076;-75
2021/12/14 08:03:07;;;;;;;3.75;2.90;;;17.00;64.10;;;;;;5072447;28;20098;-74
2021/12/14 08:05:35;;;;;;;4.20;2.80;;;16.80;64.20;;;;;;5061332;28;20095;-75
2021/12/14 08:08:08;;;;;;;4.57;3.00;;;16.80;64.00;;;;;;5053295;28;20087;-75
2021/12/14 08:10:38;;;;;;;4.10;2.95;;;17.60;64.70;;;;;;5053257;28;20067;-76
2021/12/14 08:13:07;;;;;;;5.45;3.15;;;15.90;63.70;;;;;;5053316;28;20136;-74
2021/12/14 08:15:37;;;;;;;5.32;3.10;;;17.60;64.60;;;;;;5056269;28;20049;-75
2021/12/14 08:18:08;;;;;;;4.25;2.58;;;17.60;64.60;;;;;;5052699;28;20053;-75
2021/12/14 08:20:36;;;;;;;3.88;2.60;;;16.90;58.30;;;;;;5057907;28;20486;-75
2021/12/14 08:23:18;;;;;;;4.18;2.90;;;17.40;64.70;;;;;;5072559;28;20436;-75
2021/12/14 08:25:44;;;;;;;4.07;2.75;;;16.80;64.40;;;;;;5072637;28;20061;-75
2021/12/14 08:28:12;;;;;;;3.17;2.80;;;;;;;;;;5072647;28;20059;-75
2021/12/14 08:30:40;;;;;;;3.90;2.95;;;16.10;63.70;;;;;;5072499;28;20140;-76
2021/12/14 08:33:17;;;;;;;3.72;2.88;;;17.10;64.30;;;;;;5072764;28;20131;-75
2021/12/14 08:35:44;;;;;;;3.47;3.10;;;17.10;62.00;;;;;;5061864;28;20131;-75
2021/12/14 08:38:11;;;;;;;4.05;2.90;;;16.00;63.70;;;;;;5063590;28;20133;-76
2021/12/14 08:40:39;;;;;;;3.13;2.83;;;16.80;64.00;;;;;;5063384;28;20132;-76
2021/12/14 08:43:11;;;;;;;4.50;3.10;;;16.80;62.80;;;;;;5064690;28;20056;-76
2021/12/14 08:45:40;;;;;;;4.57;3.17;;;17.30;64.60;;;;;;5063134;28;20058;-76
2021/12/14 08:48:09;;;;;;;3.65;2.88;;;17.30;64.30;;;;;;5058415;28;20113;-76
2021/12/14 08:50:39;;;;;;;3.35;2.97;;;16.30;60.00;;;;;;5058322;28;20128;-75
2021/12/14 08:53:08;;;;;;;3.22;2.92;;;;;;;;;;5057124;28;20048;-74
2021/12/14 08:55:36;;;;;;;3.75;3.08;;;16.80;64.20;;;;;;5057837;28;20053;-75
2021/12/14 08:58:03;;;;;;;4.63;3.00;;;16.80;64.20;;;;;;5058147;28;20056;-76
2021/12/14 09:00:34;;;;;;;7.53;2.83;;;16.80;58.20;;;;;;5060791;28;20131;-75
2021/12/14 09:03:01;;;;;;;3.67;3.10;;;17.00;64.40;;;;;;5060555;28;20060;-75
2021/12/14 09:05:30;;;;;;;4.22;2.80;;;17.60;64.60;;;;;;5057998;28;20056;-75
2021/12/14 09:07:58;;;;;;;4.05;3.33;;;16.10;59.00;;;;;;5059085;28;20053;-75
2021/12/14 09:10:27;;;;;;;3.47;2.78;;;16.40;64.00;;;;;;5058264;28;20072;-75
2021/12/14 09:12:56;;;;;;;3.90;3.15;;;16.30;64.10;;;;;;5061549;28;20045;-75
2021/12/14 09:15:26;;;;;;;4.13;3.13;;;16.90;61.30;;;;;;5063625;28;20139;-75
2021/12/14 09:17:53;;;;;;;4.03;3.55;;;16.80;64.40;;;;;;5066271;28;20564;-73
2021/12/14 09:20:22;;;;;;;3.58;3.28;;;16.90;64.20;;;;;;5059401;28;20088;-73
2021/12/14 09:22:51;;;;;;;4.60;3.80;;;16.70;58.30;;;;;;5068327;28;20128;-74
2021/12/14 09:25:21;;;;;;;4.05;3.45;;;16.70;64.40;;;;;;5071633;28;20139;-73
2021/12/14 09:27:48;;;;;;;5.78;3.88;;;17.20;64.60;;;;;;5072341;28;20075;-73
2021/12/14 09:30:15;;;;;;;4.43;3.60;;;16.80;64.40;;;;;;5070990;28;20120;-73
2021/12/14 09:32:42;;;;;;;5.75;3.50;;;16.50;64.20;;;;;;5072598;28;20135;-73
2021/12/14 09:35:13;;;;;;;4.78;4.28;;;16.50;64.30;;;;;;5063960;28;20045;-76
2021/12/14 09:37:40;;;;;;;5.07;4.00;;;16.90;64.40;;;;;;5065331;28;20053;-74
2021/12/14 09:40:10;;;;;;;4.70;3.83;;;16.60;58.50;;;;;;5060955;28;20076;-76
2021/12/14 09:42:38;;;;;;;4.80;4.00;;;16.80;64.60;;;;;;5061791;28;20127;-73
2021/12/14 09:45:08;;;;;;;4.72;3.97;;;16.60;64.50;;;;;;5063267;28;20124;-75
2021/12/14 09:47:35;;;;;;;4.65;3.50;;;17.00;64.40;;;;;;5060310;28;20096;-74
2021/12/14 09:50:05;;;;;;;5.13;4.00;;;17.40;60.00;;;;;;5061220;28;20073;-74
2021/12/14 09:52:33;;;;;;;4.82;3.70;;;16.60;58.40;;;;;;5060105;28;20107;-76
2021/12/14 09:55:00;;;;;;;4.28;3.80;;;17.10;63.70;;;;;;5063249;28;20140;-74
2021/12/14 09:57:29;;;;;;;5.47;3.83;;;16.10;64.20;;;;;;5056701;28;20106;-74
2021/12/14 09:59:59;;;;;;;4.22;3.60;;;16.60;60.70;;;;;;5061312;28;20076;-74
2021/12/14 10:02:27;;;;;;;6.30;4.10;;;17.20;64.40;;;;;;5061878;28;20052;-74
2021/12/14 10:04:56;;;;;;;4.75;3.97;;;16.70;62.40;;;;;;5060355;28;20120;-74
2021/12/14 10:07:23;;;;;;;7.70;4.40;;;16.50;64.20;;;;;;5062694;28;20143;-75
2021/12/14 10:09:51;;;;;;;5.05;4.25;;;16.50;64.00;;;;;;5061307;28;20083;-76
2021/12/14 10:12:48;;;;;;;4.35;3.75;;;16.30;63.90;;;;;;5062360;28;20442;-74
2021/12/14 10:15:15;;;;;;;6.80;3.97;;;16.70;59.30;;;;;;5061819;28;20513;-74
2021/12/14 10:17:43;;;;;;;5.53;4.30;;;16.50;58.30;;;;;;5057393;28;20079;-75
2021/12/14 10:20:11;;;;;;;6.20;4.47;;;17.30;64.50;;;;;;5059602;28;20501;-74
2021/12/14 10:22:38;;;;;;;4.70;4.00;;;16.70;64.00;;;;;;5061178;28;20083;-74
2021/12/14 10:25:07;;;;;;;4.78;4.15;;;16.50;58.40;;;;;;5059083;28;20127;-75
2021/12/14 10:27:34;;;;;;;5.55;4.40;;;16.60;64.20;;;;;;5059379;28;20498;-74
2021/12/14 10:30:02;;;;;;;5.38;4.13;;;16.00;63.00;;;;;;5058941;28;20072;-74
2021/12/14 10:32:34;;;;;;;5.18;4.38;;;16.50;64.30;;;;;;5060605;28;20127;-74
2021/12/14 10:35:03;;;;;;;5.47;4.45;;;16.50;58.40;;;;;;5058241;28;20092;-75
2021/12/14 10:37:39;;;;;;;6.13;4.35;;;16.60;64.00;;;;;;5054121;28;20479;-75
2021/12/14 10:43:12;;;;;;;;;;;16.50;58.90;;;;;;5061247;28;20084;-75
2021/12/14 10:45:40;;;;;;;5.38;4.30;;;16.30;64.20;;;;;;5058659;28;20397;-75
2021/12/14 10:48:09;;;;;;;4.30;3.75;;;16.60;61.30;;;;;;5058424;28;20408;-74
2021/12/14 10:50:36;;;;;;;4.60;4.10;;;17.20;64.70;;;;;;5059977;28;20076;-74
2021/12/14 10:53:04;;;;;;;5.75;4.55;;;15.60;63.60;;;;;;5061883;28;20049;-73
2021/12/14 10:55:42;;;;;;;4.47;4.03;;;16.40;64.40;;;;;;5062818;28;20507;-74
2021/12/14 10:58:08;;;;;;;5.53;4.30;;;16.10;64.20;;;;;;5064802;28;20048;-75
2021/12/14 11:00:38;;;;;;;6.70;4.20;;;16.50;58.60;;;;;;5064330;28;20049;-75
2021/12/14 11:03:08;;;;;;;8.27;4.75;;;16.60;64.50;;;;;;5062420;28;20059;-77
2021/12/14 11:05:37;;;;;;;9.30;4.40;;;16.60;64.60;;;;;;5059023;28;20049;-76
2021/12/14 11:08:04;;;;;;;10.65;4.40;;;16.60;59.00;;;;;;5060696;28;20168;-75
2021/12/14 11:10:33;;;;;;;11.02;4.18;;;16.60;64.60;;;;;;5061125;28;20052;-76
2021/12/14 11:13:01;;;;;;;10.50;4.78;;;16.00;60.90;;;;;;5060413;28;20048;-76
2021/12/14 11:15:30;;;;;;;6.53;4.35;;;16.80;64.80;;;;;;5059289;28;20128;-76
2021/12/14 11:18:11;;;;;;;9.68;4.18;;;16.80;64.90;;;;;;5059722;28;20061;-76
2021/12/14 11:20:42;;;;;;;6.25;3.63;;;17.00;64.80;;;;;;5059687;28;20080;-76
2021/12/14 11:23:10;;;;;;;9.20;3.92;;;16.60;64.50;;;;;;5059839;28;20056;-76
2021/12/14 11:25:54;;;;;;;4.97;3.78;;;16.80;64.80;;;;;;5059337;28;20132;-76
2021/12/14 11:28:22;;;;;;;6.47;4.03;;;16.90;64.70;;;;;;5058458;28;20141;-75
2021/12/14 11:30:50;;;;;;;5.88;3.60;;;16.70;64.60;;;;;;5059716;28;20079;-76
2021/12/14 11:33:19;;;;;;;4.63;3.78;;;15.60;64.00;;;;;;5060441;28;20482;-76
2021/12/14 11:35:48;;;;;;;5.50;3.75;;;16.60;64.50;;;;;;5061875;28;20059;-76
2021/12/14 11:38:27;;;;;;;4.78;3.80;;;16.70;64.60;;;;;;5061941;28;20489;-74
2021/12/14 11:40:54;;;;;;;5.00;3.97;;;16.40;64.40;;;;;;5059366;28;20112;-76
2021/12/14 11:43:23;;;;;;;8.48;4.00;;;15.90;61.00;;;;;;5064810;28;20155;-75
2021/12/14 11:45:49;;;;;;;4.15;3.30;;;16.70;64.60;;;;;;5064545;28;20135;-76
2021/12/14 11:48:16;;;;;;;4.35;3.60;;;15.90;64.10;;;;;;5065318;28;20612;-76
2021/12/14 11:50:49;;;;;;;6.00;3.85;;;16.60;64.40;;;;;;5059718;28;20229;-76
2021/12/14 11:53:18;;;;;;;4.40;3.70;;;15.90;64.40;;;;;;5060193;28;20125;-76
2021/12/14 11:55:48;;;;;;;4.60;3.60;;;17.50;61.70;;;;;;5060370;28;20057;-75
2021/12/14 11:58:24;;;;;;;5.93;3.45;;;17.30;65.00;;;;;;5061630;28;20139;-76
2021/12/14 12:00:52;;;;;;;5.68;3.50;;;16.70;64.60;;;;;;5058676;28;20072;-76
2021/12/14 12:03:35;;;;;;;4.95;3.50;;;16.70;59.10;;;;;;5058170;28;20140;-76
2021/12/14 12:06:08;;;;;;;5.07;3.80;;;16.80;64.90;;;;;;5057475;28;20049;-76
2021/12/14 12:11:22;;;;;;;3.90;3.50;;;16.80;60.00;;;;;;5062511;28;20057;-75
2021/12/14 12:13:48;;;;;;;5.00;3.70;;;16.70;65.10;;;;;;5060576;28;20131;-76
2021/12/14 12:16:17;;;;;;;4.25;3.72;;;16.70;64.80;;;;;;5060766;28;20059;-76
2021/12/14 12:19:06;;;;;;;6.57;3.50;;;16.60;59.40;;;;;;5060004;28;20057;-75
2021/12/14 12:21:33;;;;;;;4.32;3.45;;;16.50;65.00;;;;;;5064592;28;20052;-75
2021/12/14 12:24:01;;;;;;;5.47;3.85;;;16.60;65.10;;;;;;5063696;28;20124;-76
2021/12/14 12:26:29;;;;;;;4.25;3.42;;;16.60;65.40;;;;;;5062189;28;20080;-76
2021/12/14 12:29:01;;;;;;;4.38;3.20;;;15.90;61.30;;;;;;5063100;28;20059;-75
2021/12/14 12:31:28;;;;;;;6.13;3.50;;;;;;;;;;5063663;28;20460;-74
2021/12/14 12:33:56;;;;;;;4.45;3.42;;;15.80;64.80;;;;;;5059784;28;20053;-74
2021/12/14 12:36:24;;;;;;;4.60;3.75;;;16.60;65.20;;;;;;5060576;28;20066;-74
2021/12/14 12:38:52;;;;;;;4.28;3.65;;;16.60;65.50;;;;;;5059086;28;20053;-75
2021/12/14 12:41:28;;;;;;;3.90;3.40;;;16.50;65.30;;;;;;5060014;28;20400;-74
2021/12/14 12:43:59;;;;;;;4.00;3.40;;;15.90;62.60;;;;;;5059050;28;20082;-75
2021/12/14 12:46:27;;;;;;;4.30;3.42;;;16.50;65.30;;;;;;5058500;28;20149;-75
2021/12/14 12:49:11;;;;;;;4.68;3.45;;;16.60;65.40;;;;;;5060151;28;20099;-74
2021/12/14 12:51:55;;;;;;;3.60;3.17;;;16.30;65.60;;;;;;5059821;28;20052;-75
2021/12/14 12:54:38;;;;;;;5.18;3.15;;;15.90;65.50;;;;;;5057953;28;20111;-75
2021/12/14 12:57:39;;;;;;;4.20;3.30;;;16.40;62.90;;;;;;5060340;28;20079;-74
2021/12/14 13:00:24;;;;;;;3.97;3.40;;;15.80;65.30;;;;;;5063929;28;20135;-74
2021/12/14 13:02:53;;;;;;;5.18;3.50;;;16.20;64.30;;;;;;5063607;28;20876;-76
2021/12/14 13:05:24;;;;;;;4.40;3.08;;;16.20;65.80;;;;;;5063437;28;20052;-74
2021/12/14 13:07:53;;;;;;;5.53;3.55;;;16.60;66.00;;;;;;5065596;28;20139;-77
2021/12/14 13:10:29;;;;;;;3.90;3.33;;;16.40;65.90;;;;;;5059739;28;20137;-75
2021/12/14 13:13:01;;;;;;;4.43;3.55;;;16.60;65.80;;;;;;5068488;28;20049;-75
2021/12/14 13:15:37;;;;;;;4.00;3.30;;;16.10;65.80;;;;;;5066810;28;20055;-74
2021/12/14 13:18:35;;;;;;;4.03;3.40;;;15.80;65.50;;;;;;5051118;28;20470;-74
2021/12/14 13:21:07;;;;;;;4.03;3.10;;;17.00;66.30;;;;;;5019104;28;20087;-76
2021/12/14 13:23:42;;;;;;;3.90;3.50;;;15.80;65.60;;;;;;5052181;28;20091;-75
2021/12/14 13:26:27;;;;;;;4.60;3.35;;;15.90;65.50;;;;;;5072510;28;20048;-75
2021/12/14 13:28:56;;;;;;;3.83;2.92;;;15.60;65.50;;;;;;5071370;28;20135;-75
2021/12/14 13:31:26;;;;;;;6.82;3.63;;;16.40;65.80;;;;;;5071669;28;20127;-75